SJT weather

San Javier Airport
Piedras, Tolima Department, Colombia

Public forecast

Using degrees Celsius for public forecast. Weather courtesy of forecast.io.

Closest aviation weather report (METAR) to San Javier Airport

Closest report is Perales Airport, 6.0 nm (11.1 km) WNW. Retrieved 2019/12/15 02:00 UTC (7 minutes ago):

SKIB 150200Z 27005KT 9999 -DZ BKN015 BKN080 21/20 A3001

Closest aviation forecast (TAF) to San Javier Airport

Forecast is more than 12 hours old.

Closest forecast is El Eden Airport, 43.9 nm (81.2 km) W. Retrieved 2017/01/12 18:15 UTC (3 years ago):

TAF TAF SKAR 121700Z 1218/1318 33006KT 9999 SCT017 SCT090 TEMPO 1221/1224 8000 VCSH SCT017TCU PROB40 TEMPO 1300/1300 7000 TSRA SCT013CB BECMG 1302/1303 VRB02KT TEMPO 1311/1313 7000 VCFG SCT015 TX26/1220Z TN18/1311Z